sensor_id;sensor_type;location;lat;lon;timestamp;temperature;humidity
44190;DHT22;29856;52.144;5.430;2023-05-02T00:02:16;11.50;99.90
44190;DHT22;29856;52.144;5.430;2023-05-02T00:04:42;11.60;99.90
44190;DHT22;29856;52.144;5.430;2023-05-02T00:07:07;11.60;99.90
44190;DHT22;29856;52.144;5.430;2023-05-02T00:09:33;11.70;99.90
44190;DHT22;29856;52.144;5.430;2023-05-02T00:11:58;11.70;99.90
44190;DHT22;29856;52.144;5.430;2023-05-02T00:14:24;11.60;99.90
44190;DHT22;29856;52.144;5.430;2023-05-02T00:16:49;11.60;99.90
44190;DHT22;29856;52.144;5.430;2023-05-02T00:19:15;11.60;99.90
44190;DHT22;29856;52.144;5.430;2023-05-02T00:21:40;11.70;99.90
44190;DHT22;29856;52.144;5.430;2023-05-02T00:24:06;11.60;99.90
44190;DHT22;29856;52.144;5.430;2023-05-02T00:26:31;11.60;99.90
44190;DHT22;29856;52.144;5.430;2023-05-02T00:28:57;11.50;99.90
44190;DHT22;29856;52.144;5.430;2023-05-02T00:31:22;11.50;99.90
44190;DHT22;29856;52.144;5.430;2023-05-02T00:33:48;11.60;99.90
44190;DHT22;29856;52.144;5.430;2023-05-02T00:36:15;11.60;99.90
44190;DHT22;29856;52.144;5.430;2023-05-02T00:38:41;11.50;99.90
44190;DHT22;29856;52.144;5.430;2023-05-02T00:41:06;11.50;99.90
44190;DHT22;29856;52.144;5.430;2023-05-02T00:43:32;11.50;99.90
44190;DHT22;29856;52.144;5.430;2023-05-02T00:45:57;11.50;99.90
44190;DHT22;29856;52.144;5.430;2023-05-02T00:48:24;11.60;99.90
44190;DHT22;29856;52.144;5.430;2023-05-02T00:50:50;11.60;99.90
44190;DHT22;29856;52.144;5.430;2023-05-02T00:53:15;11.60;99.90
44190;DHT22;29856;52.144;5.430;2023-05-02T00:55:41;11.60;99.90
44190;DHT22;29856;52.144;5.430;2023-05-02T00:58:14;11.60;99.90
44190;DHT22;29856;52.144;5.430;2023-05-02T01:03:19;11.50;99.90
44190;DHT22;29856;52.144;5.430;2023-05-02T01:05:58;11.40;99.90
44190;DHT22;29856;52.144;5.430;2023-05-02T01:08:39;11.30;99.90
44190;DHT22;29856;52.144;5.430;2023-05-02T01:11:43;11.30;99.90
44190;DHT22;29856;52.144;5.430;2023-05-02T01:14:07;11.30;99.90
44190;DHT22;29856;52.144;5.430;2023-05-02T01:16:38;11.20;99.90
44190;DHT22;29856;52.144;5.430;2023-05-02T01:19:05;11.10;99.90
44190;DHT22;29856;52.144;5.430;2023-05-02T01:21:34;11.10;99.90
44190;DHT22;29856;52.144;5.430;2023-05-02T01:29:22;11.00;99.90
44190;DHT22;29856;52.144;5.430;2023-05-02T01:31:49;11.00;99.90
44190;DHT22;29856;52.144;5.430;2023-05-02T01:34:18;10.90;99.90
44190;DHT22;29856;52.144;5.430;2023-05-02T01:36:46;11.00;99.90
44190;DHT22;29856;52.144;5.430;2023-05-02T01:39:17;11.10;99.90
44190;DHT22;29856;52.144;5.430;2023-05-02T01:41:46;10.90;99.90
44190;DHT22;29856;52.144;5.430;2023-05-02T01:44:14;10.80;99.90
44190;DHT22;29856;52.144;5.430;2023-05-02T01:46:42;10.90;99.90
44190;DHT22;29856;52.144;5.430;2023-05-02T01:49:07;10.90;99.90
44190;DHT22;29856;52.144;5.430;2023-05-02T01:51:35;11.00;99.90
44190;DHT22;29856;52.144;5.430;2023-05-02T01:54:03;10.90;99.90
44190;DHT22;29856;52.144;5.430;2023-05-02T01:56:31;10.80;99.90
44190;DHT22;29856;52.144;5.430;2023-05-02T01:58:57;10.70;99.90
44190;DHT22;29856;52.144;5.430;2023-05-02T02:01:24;10.80;99.90
44190;DHT22;29856;52.144;5.430;2023-05-02T02:03:53;10.60;99.90
44190;DHT22;29856;52.144;5.430;2023-05-02T02:06:20;10.60;99.90
44190;DHT22;29856;52.144;5.430;2023-05-02T02:08:45;10.70;99.90
44190;DHT22;29856;52.144;5.430;2023-05-02T02:11:12;10.70;99.90
44190;DHT22;29856;52.144;5.430;2023-05-02T02:13:48;10.80;99.90
44190;DHT22;29856;52.144;5.430;2023-05-02T02:16:18;10.70;99.90
44190;DHT22;29856;52.144;5.430;2023-05-02T02:18:45;10.80;99.90
44190;DHT22;29856;52.144;5.430;2023-05-02T02:21:15;10.70;99.90
44190;DHT22;29856;52.144;5.430;2023-05-02T02:23:42;10.80;99.90
44190;DHT22;29856;52.144;5.430;2023-05-02T02:26:11;10.70;99.90
44190;DHT22;29856;52.144;5.430;2023-05-02T02:28:38;10.60;99.90
44190;DHT22;29856;52.144;5.430;2023-05-02T02:31:04;10.60;99.90
44190;DHT22;29856;52.144;5.430;2023-05-02T02:33:30;10.60;99.90
44190;DHT22;29856;52.144;5.430;2023-05-02T02:36:10;10.70;99.90
44190;DHT22;29856;52.144;5.430;2023-05-02T02:38:51;10.70;99.90
44190;DHT22;29856;52.144;5.430;2023-05-02T02:41:22;10.60;99.90
44190;DHT22;29856;52.144;5.430;2023-05-02T02:44:25;10.70;99.90
44190;DHT22;29856;52.144;5.430;2023-05-02T02:47:05;10.70;99.90
44190;DHT22;29856;52.144;5.430;2023-05-02T02:49:48;10.60;99.90
44190;DHT22;29856;52.144;5.430;2023-05-02T02:52:32;10.50;99.90
44190;DHT22;29856;52.144;5.430;2023-05-02T02:58:18;10.60;99.90
44190;DHT22;29856;52.144;5.430;2023-05-02T03:00:45;10.60;99.90
44190;DHT22;29856;52.144;5.430;2023-05-02T03:03:14;10.60;99.90
44190;DHT22;29856;52.144;5.430;2023-05-02T03:05:42;10.60;99.90
44190;DHT22;29856;52.144;5.430;2023-05-02T03:08:07;10.50;99.90
44190;DHT22;29856;52.144;5.430;2023-05-02T03:10:33;10.60;99.90
44190;DHT22;29856;52.144;5.430;2023-05-02T03:12:58;10.50;99.90
44190;DHT22;29856;52.144;5.430;2023-05-02T03:17:58;10.60;99.90
44190;DHT22;29856;52.144;5.430;2023-05-02T03:20:23;10.70;99.90
44190;DHT22;29856;52.144;5.430;2023-05-02T03:22:49;10.70;99.90
44190;DHT22;29856;52.144;5.430;2023-05-02T03:25:14;10.60;99.90
44190;DHT22;29856;52.144;5.430;2023-05-02T03:27:40;10.50;99.90
44190;DHT22;29856;52.144;5.430;2023-05-02T03:30:08;10.50;99.90
44190;DHT22;29856;52.144;5.430;2023-05-02T03:32:34;10.50;99.90
44190;DHT22;29856;52.144;5.430;2023-05-02T03:34:59;10.40;99.90
44190;DHT22;29856;52.144;5.430;2023-05-02T03:37:25;10.50;99.90
44190;DHT22;29856;52.144;5.430;2023-05-02T03:39:50;10.50;99.90
44190;DHT22;29856;52.144;5.430;2023-05-02T03:42:16;10.60;99.90
44190;DHT22;29856;52.144;5.430;2023-05-02T03:44:41;10.70;99.90
44190;DHT22;29856;52.144;5.430;2023-05-02T03:47:07;10.60;99.90
44190;DHT22;29856;52.144;5.430;2023-05-02T03:49:35;10.60;99.90
44190;DHT22;29856;52.144;5.430;2023-05-02T03:52:01;10.40;99.90
44190;DHT22;29856;52.144;5.430;2023-05-02T03:54:27;10.30;99.90
44190;DHT22;29856;52.144;5.430;2023-05-02T03:56:53;10.40;99.90
44190;DHT22;29856;52.144;5.430;2023-05-02T03:59:19;10.30;99.90
44190;DHT22;29856;52.144;5.430;2023-05-02T04:01:47;10.20;99.90
44190;DHT22;29856;52.144;5.430;2023-05-02T04:04:13;10.10;99.90
44190;DHT22;29856;52.144;5.430;2023-05-02T04:06:38;10.10;99.90
44190;DHT22;29856;52.144;5.430;2023-05-02T04:09:04;10.10;99.90
44190;DHT22;29856;52.144;5.430;2023-05-02T04:11:29;10.20;99.90
44190;DHT22;29856;52.144;5.430;2023-05-02T04:13:55;10.20;99.90
44190;DHT22;29856;52.144;5.430;2023-05-02T04:16:21;10.10;99.90
44190;DHT22;29856;52.144;5.430;2023-05-02T04:18:46;10.10;99.90
44190;DHT22;29856;52.144;5.430;2023-05-02T04:21:12;10.20;99.90
44190;DHT22;29856;52.144;5.430;2023-05-02T04:23:37;10.30;99.90
44190;DHT22;29856;52.144;5.430;2023-05-02T04:26:03;10.20;99.90
44190;DHT22;29856;52.144;5.430;2023-05-02T04:28:28;10.20;99.90
44190;DHT22;29856;52.144;5.430;2023-05-02T04:30:55;10.20;99.90
44190;DHT22;29856;52.144;5.430;2023-05-02T04:33:21;10.20;99.90
44190;DHT22;29856;52.144;5.430;2023-05-02T04:35:46;10.20;99.90
44190;DHT22;29856;52.144;5.430;2023-05-02T04:38:13;10.10;99.90
44190;DHT22;29856;52.144;5.430;2023-05-02T04:40:39;10.20;99.90
44190;DHT22;29856;52.144;5.430;2023-05-02T04:43:05;10.20;99.90
44190;DHT22;29856;52.144;5.430;2023-05-02T04:45:30;10.10;99.90
44190;DHT22;29856;52.144;5.430;2023-05-02T04:47:56;9.90;99.90
44190;DHT22;29856;52.144;5.430;2023-05-02T04:50:21;9.80;99.90
44190;DHT22;29856;52.144;5.430;2023-05-02T04:52:46;9.80;99.90
44190;DHT22;29856;52.144;5.430;2023-05-02T04:55:12;9.90;99.90
44190;DHT22;29856;52.144;5.430;2023-05-02T04:57:37;9.90;99.90
44190;DHT22;29856;52.144;5.430;2023-05-02T05:00:03;9.80;99.90
44190;DHT22;29856;52.144;5.430;2023-05-02T05:02:29;9.90;99.90
44190;DHT22;29856;52.144;5.430;2023-05-02T05:04:54;9.90;99.90
44190;DHT22;29856;52.144;5.430;2023-05-02T05:07:20;9.90;99.90
44190;DHT22;29856;52.144;5.430;2023-05-02T05:09:45;9.90;99.90
44190;DHT22;29856;52.144;5.430;2023-05-02T05:12:11;10.10;99.90
44190;DHT22;29856;52.144;5.430;2023-05-02T05:14:36;9.90;99.90
44190;DHT22;29856;52.144;5.430;2023-05-02T05:17:02;10.10;99.90
44190;DHT22;29856;52.144;5.430;2023-05-02T05:19:27;9.90;99.90
44190;DHT22;29856;52.144;5.430;2023-05-02T05:21:52;10.00;99.90
44190;DHT22;29856;52.144;5.430;2023-05-02T05:24:18;10.00;99.90
44190;DHT22;29856;52.144;5.430;2023-05-02T05:26:43;10.00;99.90
44190;DHT22;29856;52.144;5.430;2023-05-02T05:29:09;10.10;99.90
44190;DHT22;29856;52.144;5.430;2023-05-02T05:31:34;9.80;99.90
44190;DHT22;29856;52.144;5.430;2023-05-02T05:34:00;9.80;99.90
44190;DHT22;29856;52.144;5.430;2023-05-02T05:36:26;9.70;99.90
44190;DHT22;29856;52.144;5.430;2023-05-02T05:38:51;9.60;99.90
44190;DHT22;29856;52.144;5.430;2023-05-02T05:41:17;9.70;99.90
44190;DHT22;29856;52.144;5.430;2023-05-02T05:43:42;9.60;99.90
44190;DHT22;29856;52.144;5.430;2023-05-02T05:46:07;9.50;99.90
44190;DHT22;29856;52.144;5.430;2023-05-02T05:48:33;9.60;99.90
44190;DHT22;29856;52.144;5.430;2023-05-02T05:51:03;9.70;99.90
44190;DHT22;29856;52.144;5.430;2023-05-02T05:53:28;9.70;99.90
44190;DHT22;29856;52.144;5.430;2023-05-02T05:55:54;9.80;99.90
44190;DHT22;29856;52.144;5.430;2023-05-02T05:58:19;9.80;99.90
44190;DHT22;29856;52.144;5.430;2023-05-02T06:00:45;9.80;99.90
44190;DHT22;29856;52.144;5.430;2023-05-02T06:03:10;9.70;99.90
44190;DHT22;29856;52.144;5.430;2023-05-02T06:05:36;9.80;99.90
44190;DHT22;29856;52.144;5.430;2023-05-02T06:08:01;9.90;99.90
44190;DHT22;29856;52.144;5.430;2023-05-02T06:10:27;9.90;99.90
44190;DHT22;29856;52.144;5.430;2023-05-02T06:12:52;9.90;99.90
44190;DHT22;29856;52.144;5.430;2023-05-02T06:15:18;9.90;99.90
44190;DHT22;29856;52.144;5.430;2023-05-02T06:17:43;10.00;99.90
44190;DHT22;29856;52.144;5.430;2023-05-02T06:20:09;10.10;99.90
44190;DHT22;29856;52.144;5.430;2023-05-02T06:22:35;10.10;99.90
44190;DHT22;29856;52.144;5.430;2023-05-02T06:25:01;10.10;99.90
44190;DHT22;29856;52.144;5.430;2023-05-02T06:27:26;10.10;99.90
44190;DHT22;29856;52.144;5.430;2023-05-02T06:29:52;10.20;99.90
44190;DHT22;29856;52.144;5.430;2023-05-02T06:32:19;10.10;99.90
44190;DHT22;29856;52.144;5.430;2023-05-02T06:34:44;10.10;99.90
44190;DHT22;29856;52.144;5.430;2023-05-02T06:37:10;10.20;99.90
44190;DHT22;29856;52.144;5.430;2023-05-02T06:39:36;10.20;99.90
44190;DHT22;29856;52.144;5.430;2023-05-02T06:42:01;10.10;99.90
44190;DHT22;29856;52.144;5.430;2023-05-02T06:44:27;10.10;99.90
44190;DHT22;29856;52.144;5.430;2023-05-02T06:46:53;10.10;99.90
44190;DHT22;29856;52.144;5.430;2023-05-02T06:49:18;10.20;99.90
44190;DHT22;29856;52.144;5.430;2023-05-02T06:51:44;10.20;99.90
44190;DHT22;29856;52.144;5.430;2023-05-02T06:54:09;10.00;99.90
44190;DHT22;29856;52.144;5.430;2023-05-02T06:56:37;10.10;99.90
44190;DHT22;29856;52.144;5.430;2023-05-02T06:59:03;10.10;99.90
44190;DHT22;29856;52.144;5.430;2023-05-02T07:01:28;10.10;99.90
44190;DHT22;29856;52.144;5.430;2023-05-02T07:03:54;10.00;99.90
44190;DHT22;29856;52.144;5.430;2023-05-02T07:06:19;10.10;99.90
44190;DHT22;29856;52.144;5.430;2023-05-02T07:08:45;9.90;99.90
44190;DHT22;29856;52.144;5.430;2023-05-02T07:11:10;9.80;99.90
44190;DHT22;29856;52.144;5.430;2023-05-02T07:13:36;10.00;99.90
44190;DHT22;29856;52.144;5.430;2023-05-02T07:16:01;10.10;99.90
44190;DHT22;29856;52.144;5.430;2023-05-02T07:18:27;10.10;99.90
44190;DHT22;29856;52.144;5.430;2023-05-02T07:20:52;10.00;99.90
44190;DHT22;29856;52.144;5.430;2023-05-02T07:23:17;10.00;99.90
44190;DHT22;29856;52.144;5.430;2023-05-02T07:25:43;10.00;99.90
44190;DHT22;29856;52.144;5.430;2023-05-02T07:28:08;9.90;99.90
44190;DHT22;29856;52.144;5.430;2023-05-02T07:30:34;10.00;99.90
44190;DHT22;29856;52.144;5.430;2023-05-02T07:32:59;10.10;99.90
44190;DHT22;29856;52.144;5.430;2023-05-02T07:35:25;10.10;99.90
44190;DHT22;29856;52.144;5.430;2023-05-02T07:37:50;10.10;99.90
44190;DHT22;29856;52.144;5.430;2023-05-02T07:40:16;10.10;99.90
44190;DHT22;29856;52.144;5.430;2023-05-02T07:42:41;10.30;99.90
44190;DHT22;29856;52.144;5.430;2023-05-02T07:45:07;10.10;99.90
44190;DHT22;29856;52.144;5.430;2023-05-02T07:47:33;10.30;99.90
44190;DHT22;29856;52.144;5.430;2023-05-02T07:49:58;10.30;99.90
44190;DHT22;29856;52.144;5.430;2023-05-02T07:52:24;10.30;99.90
44190;DHT22;29856;52.144;5.430;2023-05-02T07:54:51;10.30;99.90
44190;DHT22;29856;52.144;5.430;2023-05-02T07:57:17;10.30;99.90
44190;DHT22;29856;52.144;5.430;2023-05-02T07:59:43;10.40;99.90
44190;DHT22;29856;52.144;5.430;2023-05-02T08:02:08;10.50;99.90
44190;DHT22;29856;52.144;5.430;2023-05-02T08:04:34;10.50;99.90
44190;DHT22;29856;52.144;5.430;2023-05-02T08:07:00;10.40;99.90
44190;DHT22;29856;52.144;5.430;2023-05-02T08:09:25;10.30;99.90
44190;DHT22;29856;52.144;5.430;2023-05-02T08:11:51;10.40;99.90
44190;DHT22;29856;52.144;5.430;2023-05-02T08:14:16;10.30;99.90
44190;DHT22;29856;52.144;5.430;2023-05-02T08:16:42;10.40;99.90
44190;DHT22;29856;52.144;5.430;2023-05-02T08:19:08;10.50;99.90
44190;DHT22;29856;52.144;5.430;2023-05-02T08:21:33;10.50;99.90
44190;DHT22;29856;52.144;5.430;2023-05-02T08:23:59;10.60;99.90
44190;DHT22;29856;52.144;5.430;2023-05-02T08:26:25;10.50;99.90
44190;DHT22;29856;52.144;5.430;2023-05-02T08:28:51;10.40;99.90
44190;DHT22;29856;52.144;5.430;2023-05-02T08:31:17;10.40;99.90
44190;DHT22;29856;52.144;5.430;2023-05-02T08:33:42;10.60;99.90
44190;DHT22;29856;52.144;5.430;2023-05-02T08:36:15;10.60;99.90
44190;DHT22;29856;52.144;5.430;2023-05-02T08:38:42;10.70;99.90
44190;DHT22;29856;52.144;5.430;2023-05-02T08:41:15;10.80;99.90
44190;DHT22;29856;52.144;5.430;2023-05-02T08:43:40;10.90;99.90
44190;DHT22;29856;52.144;5.430;2023-05-02T08:46:07;10.80;99.90
44190;DHT22;29856;52.144;5.430;2023-05-02T08:48:35;10.70;99.90
44190;DHT22;29856;52.144;5.430;2023-05-02T08:51:02;10.90;99.90
44190;DHT22;29856;52.144;5.430;2023-05-02T08:53:31;11.10;99.90
44190;DHT22;29856;52.144;5.430;2023-05-02T08:55:58;11.20;99.90
44190;DHT22;29856;52.144;5.430;2023-05-02T08:58:24;11.30;99.90
44190;DHT22;29856;52.144;5.430;2023-05-02T09:00:50;11.50;99.90
44190;DHT22;29856;52.144;5.430;2023-05-02T09:03:33;11.20;99.90
44190;DHT22;29856;52.144;5.430;2023-05-02T09:06:09;11.30;99.90
44190;DHT22;29856;52.144;5.430;2023-05-02T09:08:35;11.40;99.90
44190;DHT22;29856;52.144;5.430;2023-05-02T09:11:04;11.40;99.90
44190;DHT22;29856;52.144;5.430;2023-05-02T09:13:35;11.50;99.90
44190;DHT22;29856;52.144;5.430;2023-05-02T09:16:02;11.70;99.90
44190;DHT22;29856;52.144;5.430;2023-05-02T09:18:29;11.40;99.90
44190;DHT22;29856;52.144;5.430;2023-05-02T09:20:56;11.40;99.90
44190;DHT22;29856;52.144;5.430;2023-05-02T09:23:34;11.30;99.90
44190;DHT22;29856;52.144;5.430;2023-05-02T09:26:00;11.30;99.90
44190;DHT22;29856;52.144;5.430;2023-05-02T09:28:40;11.40;99.90
44190;DHT22;29856;52.144;5.430;2023-05-02T09:31:07;11.30;99.90
44190;DHT22;29856;52.144;5.430;2023-05-02T09:33:33;11.40;99.90
44190;DHT22;29856;52.144;5.430;2023-05-02T09:36:01;11.40;99.90
44190;DHT22;29856;52.144;5.430;2023-05-02T09:38:27;11.60;99.90
44190;DHT22;29856;52.144;5.430;2023-05-02T09:40:53;11.80;99.90
44190;DHT22;29856;52.144;5.430;2023-05-02T09:43:19;11.70;99.90
44190;DHT22;29856;52.144;5.430;2023-05-02T09:45:55;11.70;99.90
44190;DHT22;29856;52.144;5.430;2023-05-02T09:48:21;11.80;99.90
44190;DHT22;29856;52.144;5.430;2023-05-02T09:50:46;11.80;99.90
44190;DHT22;29856;52.144;5.430;2023-05-02T09:53:12;12.00;99.90
44190;DHT22;29856;52.144;5.430;2023-05-02T09:55:38;11.60;99.90
44190;DHT22;29856;52.144;5.430;2023-05-02T09:58:04;11.80;99.90
44190;DHT22;29856;52.144;5.430;2023-05-02T10:00:39;12.00;99.90
44190;DHT22;29856;52.144;5.430;2023-05-02T10:03:08;12.40;99.90
44190;DHT22;29856;52.144;5.430;2023-05-02T10:05:36;12.10;99.90
44190;DHT22;29856;52.144;5.430;2023-05-02T10:08:06;12.40;99.90
44190;DHT22;29856;52.144;5.430;2023-05-02T10:10:35;12.20;99.90
44190;DHT22;29856;52.144;5.430;2023-05-02T10:13:03;11.90;99.90
44190;DHT22;29856;52.144;5.430;2023-05-02T10:15:30;12.00;99.90
44190;DHT22;29856;52.144;5.430;2023-05-02T10:17:58;11.80;99.90
44190;DHT22;29856;52.144;5.430;2023-05-02T10:20:36;11.90;99.90
44190;DHT22;29856;52.144;5.430;2023-05-02T10:23:06;11.70;99.90
44190;DHT22;29856;52.144;5.430;2023-05-02T10:25:32;12.00;99.90
44190;DHT22;29856;52.144;5.430;2023-05-02T10:27:58;12.10;99.90
44190;DHT22;29856;52.144;5.430;2023-05-02T10:30:25;12.30;99.90
44190;DHT22;29856;52.144;5.430;2023-05-02T10:32:51;12.70;99.90
44190;DHT22;29856;52.144;5.430;2023-05-02T10:35:18;12.30;99.90
44190;DHT22;29856;52.144;5.430;2023-05-02T10:37:44;12.60;99.90
44190;DHT22;29856;52.144;5.430;2023-05-02T10:40:11;12.50;99.90
44190;DHT22;29856;52.144;5.430;2023-05-02T10:42:38;12.30;99.90
44190;DHT22;29856;52.144;5.430;2023-05-02T10:45:08;12.30;99.90
44190;DHT22;29856;52.144;5.430;2023-05-02T10:47:35;12.70;99.90
44190;DHT22;29856;52.144;5.430;2023-05-02T10:50:02;13.00;99.90
44190;DHT22;29856;52.144;5.430;2023-05-02T10:52:37;13.40;99.90
44190;DHT22;29856;52.144;5.430;2023-05-02T10:55:19;12.70;99.90
44190;DHT22;29856;52.144;5.430;2023-05-02T11:00:33;12.90;99.90
44190;DHT22;29856;52.144;5.430;2023-05-02T11:03:00;12.80;99.90
44190;DHT22;29856;52.144;5.430;2023-05-02T11:05:26;13.10;99.90
44190;DHT22;29856;52.144;5.430;2023-05-02T11:10:39;13.30;99.90
44190;DHT22;29856;52.144;5.430;2023-05-02T11:13:04;13.20;99.90
44190;DHT22;29856;52.144;5.430;2023-05-02T11:17:59;12.70;99.90
44190;DHT22;29856;52.144;5.430;2023-05-02T11:20:24;12.70;99.90
44190;DHT22;29856;52.144;5.430;2023-05-02T11:22:51;12.50;99.90
44190;DHT22;29856;52.144;5.430;2023-05-02T11:25:29;12.50;99.90
44190;DHT22;29856;52.144;5.430;2023-05-02T11:27:55;13.00;99.90
44190;DHT22;29856;52.144;5.430;2023-05-02T11:30:41;13.20;99.90
44190;DHT22;29856;52.144;5.430;2023-05-02T11:35:34;12.80;99.90
44190;DHT22;29856;52.144;5.430;2023-05-02T11:38:01;12.70;99.90
44190;DHT22;29856;52.144;5.430;2023-05-02T11:40:28;12.60;99.90
44190;DHT22;29856;52.144;5.430;2023-05-02T11:42:55;12.70;99.90
44190;DHT22;29856;52.144;5.430;2023-05-02T11:45:21;12.90;99.90
44190;DHT22;29856;52.144;5.430;2023-05-02T11:47:48;13.40;99.90
44190;DHT22;29856;52.144;5.430;2023-05-02T11:50:15;13.30;99.90
44190;DHT22;29856;52.144;5.430;2023-05-02T11:52:42;13.30;99.90
44190;DHT22;29856;52.144;5.430;2023-05-02T11:55:11;13.10;99.90
44190;DHT22;29856;52.144;5.430;2023-05-02T11:57:37;12.60;99.90
44190;DHT22;29856;52.144;5.430;2023-05-02T12:00:03;12.40;99.90
44190;DHT22;29856;52.144;5.430;2023-05-02T12:02:36;12.70;99.90
44190;DHT22;29856;52.144;5.430;2023-05-02T12:05:08;12.90;99.90
44190;DHT22;29856;52.144;5.430;2023-05-02T12:10:02;13.40;99.90
44190;DHT22;29856;52.144;5.430;2023-05-02T12:12:27;13.00;99.90
44190;DHT22;29856;52.144;5.430;2023-05-02T12:14:53;13.20;99.90
44190;DHT22;29856;52.144;5.430;2023-05-02T12:17:18;13.50;99.90
44190;DHT22;29856;52.144;5.430;2023-05-02T12:19:44;13.10;99.90
44190;DHT22;29856;52.144;5.430;2023-05-02T12:22:10;13.30;99.90
44190;DHT22;29856;52.144;5.430;2023-05-02T12:24:36;13.90;99.90
44190;DHT22;29856;52.144;5.430;2023-05-02T12:27:12;13.90;99.90
44190;DHT22;29856;52.144;5.430;2023-05-02T12:29:39;13.40;99.90
44190;DHT22;29856;52.144;5.430;2023-05-02T12:32:04;13.50;99.90
44190;DHT22;29856;52.144;5.430;2023-05-02T12:34:34;13.80;99.90
44190;DHT22;29856;52.144;5.430;2023-05-02T12:37:00;14.00;99.90
44190;DHT22;29856;52.144;5.430;2023-05-02T12:39:39;13.90;99.90
44190;DHT22;29856;52.144;5.430;2023-05-02T12:42:12;14.10;99.90
44190;DHT22;29856;52.144;5.430;2023-05-02T12:44:39;13.60;99.90
44190;DHT22;29856;52.144;5.430;2023-05-02T12:47:05;13.90;99.90
44190;DHT22;29856;52.144;5.430;2023-05-02T12:49:31;14.40;99.90
44190;DHT22;29856;52.144;5.430;2023-05-02T12:51:56;14.50;99.40
44190;DHT22;29856;52.144;5.430;2023-05-02T12:54:22;13.80;99.90
44190;DHT22;29856;52.144;5.430;2023-05-02T12:56:48;13.80;99.90
44190;DHT22;29856;52.144;5.430;2023-05-02T13:01:51;13.90;99.90
44190;DHT22;29856;52.144;5.430;2023-05-02T13:04:16;14.10;99.90
44190;DHT22;29856;52.144;5.430;2023-05-02T13:06:42;14.30;99.90
44190;DHT22;29856;52.144;5.430;2023-05-02T13:09:07;13.80;99.90
44190;DHT22;29856;52.144;5.430;2023-05-02T13:11:33;14.40;99.90
44190;DHT22;29856;52.144;5.430;2023-05-02T13:13:58;13.90;99.90
44190;DHT22;29856;52.144;5.430;2023-05-02T13:16:23;14.30;99.90
44190;DHT22;29856;52.144;5.430;2023-05-02T13:18:49;14.00;99.50
44190;DHT22;29856;52.144;5.430;2023-05-02T13:21:14;13.80;99.90
44190;DHT22;29856;52.144;5.430;2023-05-02T13:23:40;13.70;99.90
44190;DHT22;29856;52.144;5.430;2023-05-02T13:26:05;13.90;99.90
44190;DHT22;29856;52.144;5.430;2023-05-02T13:28:31;14.00;99.90
44190;DHT22;29856;52.144;5.430;2023-05-02T13:30:56;14.10;99.90
44190;DHT22;29856;52.144;5.430;2023-05-02T13:33:25;14.10;99.90
44190;DHT22;29856;52.144;5.430;2023-05-02T13:35:50;14.30;99.60
44190;DHT22;29856;52.144;5.430;2023-05-02T13:38:16;13.80;99.90
44190;DHT22;29856;52.144;5.430;2023-05-02T13:40:41;13.50;99.90
44190;DHT22;29856;52.144;5.430;2023-05-02T13:43:07;13.70;99.90
44190;DHT22;29856;52.144;5.430;2023-05-02T13:45:32;13.90;99.90
44190;DHT22;29856;52.144;5.430;2023-05-02T13:47:58;13.10;99.90
44190;DHT22;29856;52.144;5.430;2023-05-02T13:50:23;13.50;99.90
44190;DHT22;29856;52.144;5.430;2023-05-02T13:52:49;13.70;99.90
44190;DHT22;29856;52.144;5.430;2023-05-02T13:55:14;14.10;99.60
44190;DHT22;29856;52.144;5.430;2023-05-02T13:57:40;13.70;99.90
44190;DHT22;29856;52.144;5.430;2023-05-02T14:00:06;13.70;99.90
44190;DHT22;29856;52.144;5.430;2023-05-02T14:02:31;14.00;99.90
44190;DHT22;29856;52.144;5.430;2023-05-02T14:04:57;13.60;99.90
44190;DHT22;29856;52.144;5.430;2023-05-02T14:07:22;13.70;99.90
44190;DHT22;29856;52.144;5.430;2023-05-02T14:09:50;13.70;99.90
44190;DHT22;29856;52.144;5.430;2023-05-02T14:12:15;13.70;99.90
44190;DHT22;29856;52.144;5.430;2023-05-02T14:14:41;14.00;99.90
44190;DHT22;29856;52.144;5.430;2023-05-02T14:17:06;13.40;99.90
44190;DHT22;29856;52.144;5.430;2023-05-02T14:19:32;13.40;99.90
44190;DHT22;29856;52.144;5.430;2023-05-02T14:21:57;13.20;99.90
44190;DHT22;29856;52.144;5.430;2023-05-02T14:24:23;13.20;99.90
44190;DHT22;29856;52.144;5.430;2023-05-02T14:26:48;13.30;99.90
44190;DHT22;29856;52.144;5.430;2023-05-02T14:29:14;13.70;99.90
44190;DHT22;29856;52.144;5.430;2023-05-02T14:31:39;13.70;99.90
44190;DHT22;29856;52.144;5.430;2023-05-02T14:34:04;14.10;99.90
44190;DHT22;29856;52.144;5.430;2023-05-02T14:36:30;13.90;99.90
44190;DHT22;29856;52.144;5.430;2023-05-02T14:38:56;13.60;99.90
44190;DHT22;29856;52.144;5.430;2023-05-02T14:41:21;13.90;99.90
44190;DHT22;29856;52.144;5.430;2023-05-02T14:43:47;14.20;99.90
44190;DHT22;29856;52.144;5.430;2023-05-02T14:46:12;14.00;99.90
44190;DHT22;29856;52.144;5.430;2023-05-02T14:48:37;14.20;99.90
44190;DHT22;29856;52.144;5.430;2023-05-02T14:51:03;14.10;99.60
44190;DHT22;29856;52.144;5.430;2023-05-02T14:53:29;14.40;99.90
44190;DHT22;29856;52.144;5.430;2023-05-02T14:55:54;13.90;99.80
44190;DHT22;29856;52.144;5.430;2023-05-02T14:58:20;13.30;99.90
44190;DHT22;29856;52.144;5.430;2023-05-02T15:00:46;13.10;99.90
44190;DHT22;29856;52.144;5.430;2023-05-02T15:03:11;13.60;99.90
44190;DHT22;29856;52.144;5.430;2023-05-02T15:05:38;13.60;99.90
44190;DHT22;29856;52.144;5.430;2023-05-02T15:08:04;14.00;99.70
44190;DHT22;29856;52.144;5.430;2023-05-02T15:10:29;14.10;99.70
44190;DHT22;29856;52.144;5.430;2023-05-02T15:12:55;14.00;99.90
44190;DHT22;29856;52.144;5.430;2023-05-02T15:15:20;14.20;99.90
44190;DHT22;29856;52.144;5.430;2023-05-02T15:17:46;14.40;99.60
44190;DHT22;29856;52.144;5.430;2023-05-02T15:20:11;14.10;99.40
44190;DHT22;29856;52.144;5.430;2023-05-02T15:22:37;14.10;99.90
44190;DHT22;29856;52.144;5.430;2023-05-02T15:25:02;14.40;99.60
44190;DHT22;29856;52.144;5.430;2023-05-02T15:27:28;13.80;99.10
44190;DHT22;29856;52.144;5.430;2023-05-02T15:29:53;13.60;99.80
44190;DHT22;29856;52.144;5.430;2023-05-02T15:32:19;14.30;99.90
44190;DHT22;29856;52.144;5.430;2023-05-02T15:34:44;13.90;98.70
44190;DHT22;29856;52.144;5.430;2023-05-02T15:37:10;13.80;99.10
44190;DHT22;29856;52.144;5.430;2023-05-02T15:39:35;13.80;99.90
44190;DHT22;29856;52.144;5.430;2023-05-02T15:42:04;14.30;99.30
44190;DHT22;29856;52.144;5.430;2023-05-02T15:44:34;14.50;99.60
44190;DHT22;29856;52.144;5.430;2023-05-02T15:46:59;14.70;99.70
44190;DHT22;29856;52.144;5.430;2023-05-02T15:49:25;15.20;99.90
44190;DHT22;29856;52.144;5.430;2023-05-02T15:51:50;15.20;99.70
44190;DHT22;29856;52.144;5.430;2023-05-02T15:54:16;15.00;98.70
44190;DHT22;29856;52.144;5.430;2023-05-02T15:56:41;14.70;99.90
44190;DHT22;29856;52.144;5.430;2023-05-02T15:59:06;14.50;99.90
44190;DHT22;29856;52.144;5.430;2023-05-02T16:01:32;14.00;99.90